sensor_id;sensor_type;location;lat;lon;timestamp;P1;durP1;ratioP1;P2;durP2;ratioP2
12467;SDS011;57850;52.922;6.256;2023-02-02T00:01:14;22.02;;;4.30;;
12467;SDS011;57850;52.922;6.256;2023-02-02T00:03:41;31.23;;;5.03;;
12467;SDS011;57850;52.922;6.256;2023-02-02T00:06:08;33.27;;;4.23;;
12467;SDS011;57850;52.922;6.256;2023-02-02T00:08:36;30.85;;;4.53;;
12467;SDS011;57850;52.922;6.256;2023-02-02T00:11:03;34.43;;;5.13;;
12467;SDS011;57850;52.922;6.256;2023-02-02T00:13:31;22.60;;;4.60;;
12467;SDS011;57850;52.922;6.256;2023-02-02T00:15:58;32.00;;;4.78;;
12467;SDS011;57850;52.922;6.256;2023-02-02T00:18:25;24.38;;;5.10;;
12467;SDS011;57850;52.922;6.256;2023-02-02T00:20:52;31.27;;;4.53;;
12467;SDS011;57850;52.922;6.256;2023-02-02T00:23:24;22.00;;;3.83;;
12467;SDS011;57850;52.922;6.256;2023-02-02T00:25:53;23.38;;;4.30;;
12467;SDS011;57850;52.922;6.256;2023-02-02T00:28:19;34.63;;;5.68;;
12467;SDS011;57850;52.922;6.256;2023-02-02T00:30:46;34.72;;;4.50;;
12467;SDS011;57850;52.922;6.256;2023-02-02T00:33:12;27.63;;;5.03;;
12467;SDS011;57850;52.922;6.256;2023-02-02T00:35:40;26.07;;;4.73;;
12467;SDS011;57850;52.922;6.256;2023-02-02T00:38:07;21.80;;;5.00;;
12467;SDS011;57850;52.922;6.256;2023-02-02T00:40:34;31.98;;;4.10;;
12467;SDS011;57850;52.922;6.256;2023-02-02T00:43:02;29.75;;;4.32;;
12467;SDS011;57850;52.922;6.256;2023-02-02T00:45:31;27.58;;;4.57;;
12467;SDS011;57850;52.922;6.256;2023-02-02T00:47:56;27.05;;;5.03;;
12467;SDS011;57850;52.922;6.256;2023-02-02T00:50:23;27.40;;;4.63;;
12467;SDS011;57850;52.922;6.256;2023-02-02T00:52:50;22.90;;;4.25;;
12467;SDS011;57850;52.922;6.256;2023-02-02T00:55:16;21.55;;;4.25;;
12467;SDS011;57850;52.922;6.256;2023-02-02T00:57:46;26.35;;;3.75;;
12467;SDS011;57850;52.922;6.256;2023-02-02T01:03:11;23.30;;;4.90;;
12467;SDS011;57850;52.922;6.256;2023-02-02T01:05:45;19.45;;;3.67;;
12467;SDS011;57850;52.922;6.256;2023-02-02T01:08:14;30.00;;;4.82;;
12467;SDS011;57850;52.922;6.256;2023-02-02T01:10:41;20.65;;;3.63;;
12467;SDS011;57850;52.922;6.256;2023-02-02T01:13:07;24.90;;;4.10;;
12467;SDS011;57850;52.922;6.256;2023-02-02T01:15:35;23.55;;;4.00;;
12467;SDS011;57850;52.922;6.256;2023-02-02T01:18:02;25.00;;;4.05;;
12467;SDS011;57850;52.922;6.256;2023-02-02T01:20:29;21.38;;;4.45;;
12467;SDS011;57850;52.922;6.256;2023-02-02T01:22:56;24.52;;;4.15;;
12467;SDS011;57850;52.922;6.256;2023-02-02T01:25:22;24.52;;;4.85;;
12467;SDS011;57850;52.922;6.256;2023-02-02T01:27:52;22.35;;;4.50;;
12467;SDS011;57850;52.922;6.256;2023-02-02T01:30:19;26.17;;;5.50;;
12467;SDS011;57850;52.922;6.256;2023-02-02T01:32:47;30.90;;;3.92;;
12467;SDS011;57850;52.922;6.256;2023-02-02T01:35:16;29.73;;;4.75;;
12467;SDS011;57850;52.922;6.256;2023-02-02T01:37:43;20.60;;;3.75;;
12467;SDS011;57850;52.922;6.256;2023-02-02T01:40:10;18.05;;;3.58;;
12467;SDS011;57850;52.922;6.256;2023-02-02T01:42:37;28.73;;;4.35;;
12467;SDS011;57850;52.922;6.256;2023-02-02T01:45:08;19.70;;;3.42;;
12467;SDS011;57850;52.922;6.256;2023-02-02T01:47:48;26.70;;;4.25;;
12467;SDS011;57850;52.922;6.256;2023-02-02T01:50:30;19.83;;;3.50;;
12467;SDS011;57850;52.922;6.256;2023-02-02T01:53:10;23.77;;;4.82;;
12467;SDS011;57850;52.922;6.256;2023-02-02T01:55:37;19.08;;;3.67;;
12467;SDS011;57850;52.922;6.256;2023-02-02T01:58:08;25.38;;;4.05;;
12467;SDS011;57850;52.922;6.256;2023-02-02T02:00:39;24.33;;;4.38;;
12467;SDS011;57850;52.922;6.256;2023-02-02T02:03:09;19.73;;;3.92;;
12467;SDS011;57850;52.922;6.256;2023-02-02T02:05:40;22.98;;;4.32;;
12467;SDS011;57850;52.922;6.256;2023-02-02T02:08:20;17.75;;;3.78;;
12467;SDS011;57850;52.922;6.256;2023-02-02T02:10:52;24.95;;;3.95;;
12467;SDS011;57850;52.922;6.256;2023-02-02T02:13:23;27.52;;;4.25;;
12467;SDS011;57850;52.922;6.256;2023-02-02T02:16:14;20.75;;;3.90;;
12467;SDS011;57850;52.922;6.256;2023-02-02T02:18:49;25.15;;;4.25;;
12467;SDS011;57850;52.922;6.256;2023-02-02T02:21:36;25.20;;;4.38;;
12467;SDS011;57850;52.922;6.256;2023-02-02T02:28:14;20.67;;;3.63;;
12467;SDS011;57850;52.922;6.256;2023-02-02T02:34:15;20.83;;;3.03;;
12467;SDS011;57850;52.922;6.256;2023-02-02T02:36:48;17.10;;;4.25;;
12467;SDS011;57850;52.922;6.256;2023-02-02T02:39:24;18.50;;;3.08;;
12467;SDS011;57850;52.922;6.256;2023-02-02T02:41:55;19.70;;;3.30;;
12467;SDS011;57850;52.922;6.256;2023-02-02T02:44:24;13.70;;;2.85;;
12467;SDS011;57850;52.922;6.256;2023-02-02T02:46:53;18.13;;;2.63;;
12467;SDS011;57850;52.922;6.256;2023-02-02T02:49:21;15.43;;;3.05;;
12467;SDS011;57850;52.922;6.256;2023-02-02T02:51:49;12.20;;;3.25;;
12467;SDS011;57850;52.922;6.256;2023-02-02T02:54:17;16.55;;;4.13;;
12467;SDS011;57850;52.922;6.256;2023-02-02T02:56:55;21.08;;;3.55;;
12467;SDS011;57850;52.922;6.256;2023-02-02T02:59:34;22.13;;;4.20;;
12467;SDS011;57850;52.922;6.256;2023-02-02T03:02:15;15.13;;;3.42;;
12467;SDS011;57850;52.922;6.256;2023-02-02T03:04:58;19.60;;;4.70;;
12467;SDS011;57850;52.922;6.256;2023-02-02T03:07:33;14.23;;;3.08;;
12467;SDS011;57850;52.922;6.256;2023-02-02T03:10:03;20.20;;;4.05;;
12467;SDS011;57850;52.922;6.256;2023-02-02T03:12:32;19.27;;;3.72;;
12467;SDS011;57850;52.922;6.256;2023-02-02T03:15:03;21.70;;;3.25;;
12467;SDS011;57850;52.922;6.256;2023-02-02T03:17:30;19.02;;;4.30;;
12467;SDS011;57850;52.922;6.256;2023-02-02T03:19:58;17.70;;;3.10;;
12467;SDS011;57850;52.922;6.256;2023-02-02T03:22:25;10.30;;;2.42;;
12467;SDS011;57850;52.922;6.256;2023-02-02T03:24:51;17.80;;;2.85;;
12467;SDS011;57850;52.922;6.256;2023-02-02T03:27:18;14.23;;;2.63;;
12467;SDS011;57850;52.922;6.256;2023-02-02T03:29:45;18.33;;;3.80;;
12467;SDS011;57850;52.922;6.256;2023-02-02T03:32:12;15.52;;;3.15;;
12467;SDS011;57850;52.922;6.256;2023-02-02T03:34:39;14.40;;;3.35;;
12467;SDS011;57850;52.922;6.256;2023-02-02T03:37:06;15.43;;;2.78;;
12467;SDS011;57850;52.922;6.256;2023-02-02T03:39:33;19.60;;;2.88;;
12467;SDS011;57850;52.922;6.256;2023-02-02T03:42:00;22.98;;;3.60;;
12467;SDS011;57850;52.922;6.256;2023-02-02T03:44:26;15.35;;;3.25;;
12467;SDS011;57850;52.922;6.256;2023-02-02T03:46:53;16.75;;;3.08;;
12467;SDS011;57850;52.922;6.256;2023-02-02T03:49:20;16.20;;;2.90;;
12467;SDS011;57850;52.922;6.256;2023-02-02T03:51:47;16.17;;;2.97;;
12467;SDS011;57850;52.922;6.256;2023-02-02T03:54:15;22.75;;;3.53;;
12467;SDS011;57850;52.922;6.256;2023-02-02T03:56:42;19.73;;;3.80;;
12467;SDS011;57850;52.922;6.256;2023-02-02T03:59:09;14.55;;;3.13;;
12467;SDS011;57850;52.922;6.256;2023-02-02T04:01:35;18.17;;;3.42;;
12467;SDS011;57850;52.922;6.256;2023-02-02T04:04:02;18.92;;;3.60;;
12467;SDS011;57850;52.922;6.256;2023-02-02T04:06:28;19.77;;;3.80;;
12467;SDS011;57850;52.922;6.256;2023-02-02T04:08:55;19.05;;;2.88;;
12467;SDS011;57850;52.922;6.256;2023-02-02T04:11:23;21.42;;;3.30;;
12467;SDS011;57850;52.922;6.256;2023-02-02T04:13:50;22.50;;;2.88;;
12467;SDS011;57850;52.922;6.256;2023-02-02T04:16:16;12.02;;;2.70;;
12467;SDS011;57850;52.922;6.256;2023-02-02T04:18:43;10.82;;;2.42;;
12467;SDS011;57850;52.922;6.256;2023-02-02T04:21:09;15.60;;;3.03;;
12467;SDS011;57850;52.922;6.256;2023-02-02T04:23:36;10.68;;;2.67;;
12467;SDS011;57850;52.922;6.256;2023-02-02T04:26:03;16.27;;;2.80;;
12467;SDS011;57850;52.922;6.256;2023-02-02T04:28:32;14.40;;;3.15;;
12467;SDS011;57850;52.922;6.256;2023-02-02T04:30:58;12.05;;;1.88;;
12467;SDS011;57850;52.922;6.256;2023-02-02T04:33:25;9.80;;;2.00;;
12467;SDS011;57850;52.922;6.256;2023-02-02T04:35:52;13.73;;;2.35;;
12467;SDS011;57850;52.922;6.256;2023-02-02T04:38:19;13.63;;;2.53;;
12467;SDS011;57850;52.922;6.256;2023-02-02T04:40:47;8.80;;;1.90;;
12467;SDS011;57850;52.922;6.256;2023-02-02T04:43:13;9.40;;;1.98;;
12467;SDS011;57850;52.922;6.256;2023-02-02T04:45:42;8.35;;;1.90;;
12467;SDS011;57850;52.922;6.256;2023-02-02T04:48:09;14.48;;;2.65;;
12467;SDS011;57850;52.922;6.256;2023-02-02T04:50:36;10.60;;;2.08;;
12467;SDS011;57850;52.922;6.256;2023-02-02T04:53:02;13.40;;;2.30;;
12467;SDS011;57850;52.922;6.256;2023-02-02T04:55:29;5.72;;;2.00;;
12467;SDS011;57850;52.922;6.256;2023-02-02T04:57:56;6.15;;;1.40;;
12467;SDS011;57850;52.922;6.256;2023-02-02T05:00:22;5.63;;;1.52;;
12467;SDS011;57850;52.922;6.256;2023-02-02T05:02:51;4.95;;;1.80;;
12467;SDS011;57850;52.922;6.256;2023-02-02T05:05:18;6.47;;;1.85;;
12467;SDS011;57850;52.922;6.256;2023-02-02T05:07:46;11.18;;;1.60;;
12467;SDS011;57850;52.922;6.256;2023-02-02T05:10:12;8.10;;;1.67;;
12467;SDS011;57850;52.922;6.256;2023-02-02T05:12:39;7.70;;;1.98;;
12467;SDS011;57850;52.922;6.256;2023-02-02T05:15:06;5.13;;;1.40;;
12467;SDS011;57850;52.922;6.256;2023-02-02T05:17:33;6.45;;;1.88;;
12467;SDS011;57850;52.922;6.256;2023-02-02T05:20:01;7.78;;;1.88;;
12467;SDS011;57850;52.922;6.256;2023-02-02T05:22:27;7.15;;;1.55;;
12467;SDS011;57850;52.922;6.256;2023-02-02T05:24:54;9.88;;;2.03;;
12467;SDS011;57850;52.922;6.256;2023-02-02T05:27:21;8.27;;;1.90;;
12467;SDS011;57850;52.922;6.256;2023-02-02T05:29:47;7.43;;;2.45;;
12467;SDS011;57850;52.922;6.256;2023-02-02T05:32:14;13.02;;;3.55;;
12467;SDS011;57850;52.922;6.256;2023-02-02T05:34:41;13.85;;;5.03;;
12467;SDS011;57850;52.922;6.256;2023-02-02T05:37:09;7.00;;;2.45;;
12467;SDS011;57850;52.922;6.256;2023-02-02T05:39:35;6.13;;;1.80;;
12467;SDS011;57850;52.922;6.256;2023-02-02T05:42:02;20.58;;;8.77;;
12467;SDS011;57850;52.922;6.256;2023-02-02T05:44:29;11.10;;;2.00;;
12467;SDS011;57850;52.922;6.256;2023-02-02T05:46:55;8.82;;;1.65;;
12467;SDS011;57850;52.922;6.256;2023-02-02T05:49:22;12.07;;;2.00;;
12467;SDS011;57850;52.922;6.256;2023-02-02T05:51:49;5.63;;;1.60;;
12467;SDS011;57850;52.922;6.256;2023-02-02T05:54:20;5.75;;;1.60;;
12467;SDS011;57850;52.922;6.256;2023-02-02T05:56:47;12.20;;;1.80;;
12467;SDS011;57850;52.922;6.256;2023-02-02T05:59:15;9.02;;;1.42;;
12467;SDS011;57850;52.922;6.256;2023-02-02T06:01:42;4.57;;;1.55;;
12467;SDS011;57850;52.922;6.256;2023-02-02T06:04:08;6.93;;;2.03;;
12467;SDS011;57850;52.922;6.256;2023-02-02T06:06:35;8.05;;;1.80;;
12467;SDS011;57850;52.922;6.256;2023-02-02T06:09:03;8.38;;;2.15;;
12467;SDS011;57850;52.922;6.256;2023-02-02T06:11:31;8.57;;;1.83;;
12467;SDS011;57850;52.922;6.256;2023-02-02T06:13:58;5.70;;;1.85;;
12467;SDS011;57850;52.922;6.256;2023-02-02T06:16:25;7.43;;;1.50;;
12467;SDS011;57850;52.922;6.256;2023-02-02T06:18:52;7.28;;;1.58;;
12467;SDS011;57850;52.922;6.256;2023-02-02T06:21:18;4.72;;;1.50;;
12467;SDS011;57850;52.922;6.256;2023-02-02T06:23:49;6.60;;;1.65;;
12467;SDS011;57850;52.922;6.256;2023-02-02T06:26:17;5.82;;;1.83;;
12467;SDS011;57850;52.922;6.256;2023-02-02T06:28:48;6.57;;;1.73;;
12467;SDS011;57850;52.922;6.256;2023-02-02T06:31:16;5.63;;;1.75;;
12467;SDS011;57850;52.922;6.256;2023-02-02T06:33:44;7.72;;;1.35;;
12467;SDS011;57850;52.922;6.256;2023-02-02T06:36:11;6.20;;;1.80;;
12467;SDS011;57850;52.922;6.256;2023-02-02T06:38:37;5.03;;;1.23;;
12467;SDS011;57850;52.922;6.256;2023-02-02T06:41:04;7.07;;;1.70;;
12467;SDS011;57850;52.922;6.256;2023-02-02T06:43:31;8.45;;;2.00;;
12467;SDS011;57850;52.922;6.256;2023-02-02T06:45:59;6.55;;;1.40;;
12467;SDS011;57850;52.922;6.256;2023-02-02T06:48:26;9.25;;;1.70;;
12467;SDS011;57850;52.922;6.256;2023-02-02T06:50:52;6.05;;;1.60;;
12467;SDS011;57850;52.922;6.256;2023-02-02T06:53:19;7.93;;;1.90;;
12467;SDS011;57850;52.922;6.256;2023-02-02T06:55:51;4.38;;;1.55;;
12467;SDS011;57850;52.922;6.256;2023-02-02T06:58:18;4.93;;;1.50;;
12467;SDS011;57850;52.922;6.256;2023-02-02T07:00:45;4.70;;;1.88;;
12467;SDS011;57850;52.922;6.256;2023-02-02T07:03:14;5.38;;;2.00;;
12467;SDS011;57850;52.922;6.256;2023-02-02T07:05:40;13.15;;;2.20;;
12467;SDS011;57850;52.922;6.256;2023-02-02T07:08:07;10.95;;;2.50;;
12467;SDS011;57850;52.922;6.256;2023-02-02T07:10:35;8.77;;;2.55;;
12467;SDS011;57850;52.922;6.256;2023-02-02T07:13:01;9.93;;;2.78;;
12467;SDS011;57850;52.922;6.256;2023-02-02T07:15:28;6.72;;;2.55;;
12467;SDS011;57850;52.922;6.256;2023-02-02T07:17:55;10.05;;;2.70;;
12467;SDS011;57850;52.922;6.256;2023-02-02T07:20:22;7.28;;;2.28;;
12467;SDS011;57850;52.922;6.256;2023-02-02T07:22:50;5.60;;;2.30;;
12467;SDS011;57850;52.922;6.256;2023-02-02T07:25:16;7.18;;;2.45;;
12467;SDS011;57850;52.922;6.256;2023-02-02T07:27:43;3.97;;;1.95;;
12467;SDS011;57850;52.922;6.256;2023-02-02T07:30:11;3.47;;;2.50;;
12467;SDS011;57850;52.922;6.256;2023-02-02T07:32:38;6.75;;;2.58;;
12467;SDS011;57850;52.922;6.256;2023-02-02T07:35:05;6.75;;;3.45;;
12467;SDS011;57850;52.922;6.256;2023-02-02T07:37:33;6.13;;;3.25;;
12467;SDS011;57850;52.922;6.256;2023-02-02T07:39:59;5.75;;;3.28;;
12467;SDS011;57850;52.922;6.256;2023-02-02T07:42:26;5.80;;;3.22;;
12467;SDS011;57850;52.922;6.256;2023-02-02T07:44:52;6.32;;;3.55;;
12467;SDS011;57850;52.922;6.256;2023-02-02T07:47:19;4.80;;;3.22;;
12467;SDS011;57850;52.922;6.256;2023-02-02T07:49:46;7.65;;;3.53;;
12467;SDS011;57850;52.922;6.256;2023-02-02T07:52:12;5.05;;;2.92;;
12467;SDS011;57850;52.922;6.256;2023-02-02T07:54:41;5.40;;;3.20;;
12467;SDS011;57850;52.922;6.256;2023-02-02T07:57:07;4.55;;;3.30;;
12467;SDS011;57850;52.922;6.256;2023-02-02T07:59:34;4.53;;;3.08;;
12467;SDS011;57850;52.922;6.256;2023-02-02T08:02:01;6.50;;;3.40;;
12467;SDS011;57850;52.922;6.256;2023-02-02T08:04:28;3.72;;;2.85;;
12467;SDS011;57850;52.922;6.256;2023-02-02T08:06:54;6.00;;;3.42;;
12467;SDS011;57850;52.922;6.256;2023-02-02T08:09:21;4.35;;;2.92;;
12467;SDS011;57850;52.922;6.256;2023-02-02T08:11:50;5.95;;;3.25;;
12467;SDS011;57850;52.922;6.256;2023-02-02T08:14:16;3.80;;;2.78;;
12467;SDS011;57850;52.922;6.256;2023-02-02T08:16:43;5.82;;;2.90;;
12467;SDS011;57850;52.922;6.256;2023-02-02T08:19:10;4.07;;;3.00;;
12467;SDS011;57850;52.922;6.256;2023-02-02T08:21:37;4.60;;;2.90;;
12467;SDS011;57850;52.922;6.256;2023-02-02T08:24:03;4.28;;;3.15;;
12467;SDS011;57850;52.922;6.256;2023-02-02T08:26:30;5.30;;;3.08;;
12467;SDS011;57850;52.922;6.256;2023-02-02T08:28:59;3.38;;;3.08;;
12467;SDS011;57850;52.922;6.256;2023-02-02T08:31:28;3.47;;;3.17;;
12467;SDS011;57850;52.922;6.256;2023-02-02T08:33:55;7.18;;;3.58;;
12467;SDS011;57850;52.922;6.256;2023-02-02T08:36:23;4.10;;;3.40;;
12467;SDS011;57850;52.922;6.256;2023-02-02T08:38:51;4.45;;;3.00;;
12467;SDS011;57850;52.922;6.256;2023-02-02T08:41:18;4.22;;;2.97;;
12467;SDS011;57850;52.922;6.256;2023-02-02T08:43:46;6.13;;;3.60;;
12467;SDS011;57850;52.922;6.256;2023-02-02T08:46:16;4.80;;;3.58;;
12467;SDS011;57850;52.922;6.256;2023-02-02T08:48:44;4.05;;;2.78;;
12467;SDS011;57850;52.922;6.256;2023-02-02T08:51:11;7.45;;;3.30;;
12467;SDS011;57850;52.922;6.256;2023-02-02T08:53:40;5.38;;;3.88;;
12467;SDS011;57850;52.922;6.256;2023-02-02T08:56:08;5.00;;;3.50;;
12467;SDS011;57850;52.922;6.256;2023-02-02T08:58:37;4.38;;;3.20;;
12467;SDS011;57850;52.922;6.256;2023-02-02T09:01:04;5.63;;;3.42;;
12467;SDS011;57850;52.922;6.256;2023-02-02T09:03:33;4.88;;;3.40;;
12467;SDS011;57850;52.922;6.256;2023-02-02T09:06:03;3.85;;;3.28;;
12467;SDS011;57850;52.922;6.256;2023-02-02T09:08:30;4.55;;;3.38;;
12467;SDS011;57850;52.922;6.256;2023-02-02T09:11:01;4.25;;;3.40;;
12467;SDS011;57850;52.922;6.256;2023-02-02T09:13:29;4.85;;;3.55;;
12467;SDS011;57850;52.922;6.256;2023-02-02T09:15:57;4.90;;;3.58;;
12467;SDS011;57850;52.922;6.256;2023-02-02T09:18:25;6.15;;;3.15;;
12467;SDS011;57850;52.922;6.256;2023-02-02T09:20:53;5.28;;;3.40;;
12467;SDS011;57850;52.922;6.256;2023-02-02T09:23:19;3.72;;;3.13;;
12467;SDS011;57850;52.922;6.256;2023-02-02T09:25:46;3.78;;;3.03;;
12467;SDS011;57850;52.922;6.256;2023-02-02T09:28:13;5.53;;;3.08;;
12467;SDS011;57850;52.922;6.256;2023-02-02T09:30:39;3.75;;;2.55;;
12467;SDS011;57850;52.922;6.256;2023-02-02T09:33:06;3.45;;;2.63;;
12467;SDS011;57850;52.922;6.256;2023-02-02T09:35:32;4.05;;;2.95;;
12467;SDS011;57850;52.922;6.256;2023-02-02T09:38:00;4.35;;;3.28;;
12467;SDS011;57850;52.922;6.256;2023-02-02T09:40:27;3.10;;;2.65;;
12467;SDS011;57850;52.922;6.256;2023-02-02T09:42:59;3.00;;;2.38;;
12467;SDS011;57850;52.922;6.256;2023-02-02T09:45:33;3.50;;;2.47;;
12467;SDS011;57850;52.922;6.256;2023-02-02T09:48:09;3.45;;;2.58;;
12467;SDS011;57850;52.922;6.256;2023-02-02T09:50:51;3.13;;;2.53;;
12467;SDS011;57850;52.922;6.256;2023-02-02T09:53:23;2.60;;;2.20;;
12467;SDS011;57850;52.922;6.256;2023-02-02T09:55:59;2.85;;;2.35;;
12467;SDS011;57850;52.922;6.256;2023-02-02T09:58:30;2.90;;;2.40;;
12467;SDS011;57850;52.922;6.256;2023-02-02T10:01:00;3.10;;;2.33;;
12467;SDS011;57850;52.922;6.256;2023-02-02T10:03:32;3.33;;;2.20;;
12467;SDS011;57850;52.922;6.256;2023-02-02T10:06:05;4.10;;;2.80;;
12467;SDS011;57850;52.922;6.256;2023-02-02T10:08:43;3.47;;;2.40;;
12467;SDS011;57850;52.922;6.256;2023-02-02T10:11:21;3.13;;;2.40;;
12467;SDS011;57850;52.922;6.256;2023-02-02T10:13:55;2.55;;;2.05;;
12467;SDS011;57850;52.922;6.256;2023-02-02T10:16:25;4.60;;;2.70;;
12467;SDS011;57850;52.922;6.256;2023-02-02T10:18:53;2.30;;;1.88;;
12467;SDS011;57850;52.922;6.256;2023-02-02T10:21:25;3.75;;;2.30;;
12467;SDS011;57850;52.922;6.256;2023-02-02T10:24:01;5.30;;;2.22;;
12467;SDS011;57850;52.922;6.256;2023-02-02T10:26:30;3.85;;;1.80;;
12467;SDS011;57850;52.922;6.256;2023-02-02T10:29:05;4.05;;;2.35;;
12467;SDS011;57850;52.922;6.256;2023-02-02T10:31:40;6.07;;;2.38;;
12467;SDS011;57850;52.922;6.256;2023-02-02T10:34:12;4.95;;;1.92;;
12467;SDS011;57850;52.922;6.256;2023-02-02T10:36:46;4.70;;;2.10;;
12467;SDS011;57850;52.922;6.256;2023-02-02T10:39:27;4.50;;;2.35;;
12467;SDS011;57850;52.922;6.256;2023-02-02T10:42:05;3.72;;;2.38;;
12467;SDS011;57850;52.922;6.256;2023-02-02T10:44:40;3.13;;;2.35;;
12467;SDS011;57850;52.922;6.256;2023-02-02T10:47:15;2.17;;;1.65;;
12467;SDS011;57850;52.922;6.256;2023-02-02T10:49:53;3.22;;;1.80;;
12467;SDS011;57850;52.922;6.256;2023-02-02T10:52:27;5.43;;;2.78;;
12467;SDS011;57850;52.922;6.256;2023-02-02T10:54:58;4.90;;;2.10;;
12467;SDS011;57850;52.922;6.256;2023-02-02T10:57:33;2.45;;;1.40;;
12467;SDS011;57850;52.922;6.256;2023-02-02T11:00:14;3.70;;;2.00;;
12467;SDS011;57850;52.922;6.256;2023-02-02T11:02:46;4.25;;;1.60;;
12467;SDS011;57850;52.922;6.256;2023-02-02T11:05:18;4.22;;;2.03;;
12467;SDS011;57850;52.922;6.256;2023-02-02T11:10:54;5.32;;;1.67;;
12467;SDS011;57850;52.922;6.256;2023-02-02T11:13:26;4.80;;;1.77;;
12467;SDS011;57850;52.922;6.256;2023-02-02T11:18:50;3.13;;;2.00;;
12467;SDS011;57850;52.922;6.256;2023-02-02T11:21:18;3.42;;;2.10;;
12467;SDS011;57850;52.922;6.256;2023-02-02T11:23:54;4.00;;;2.50;;
12467;SDS011;57850;52.922;6.256;2023-02-02T11:26:26;3.88;;;1.98;;
12467;SDS011;57850;52.922;6.256;2023-02-02T11:29:05;4.53;;;2.05;;
12467;SDS011;57850;52.922;6.256;2023-02-02T11:31:39;3.28;;;2.15;;
12467;SDS011;57850;52.922;6.256;2023-02-02T11:34:16;3.55;;;2.63;;
12467;SDS011;57850;52.922;6.256;2023-02-02T11:36:57;4.97;;;2.78;;
12467;SDS011;57850;52.922;6.256;2023-02-02T11:39:28;3.38;;;2.33;;
12467;SDS011;57850;52.922;6.256;2023-02-02T11:42:04;3.50;;;2.42;;
12467;SDS011;57850;52.922;6.256;2023-02-02T11:44:32;4.07;;;2.67;;
12467;SDS011;57850;52.922;6.256;2023-02-02T11:47:01;3.88;;;2.55;;
12467;SDS011;57850;52.922;6.256;2023-02-02T11:49:30;3.45;;;2.47;;
12467;SDS011;57850;52.922;6.256;2023-02-02T11:52:04;3.28;;;2.70;;
12467;SDS011;57850;52.922;6.256;2023-02-02T11:54:39;3.75;;;2.65;;
12467;SDS011;57850;52.922;6.256;2023-02-02T11:57:16;4.50;;;2.80;;
12467;SDS011;57850;52.922;6.256;2023-02-02T11:59:45;5.18;;;2.70;;
12467;SDS011;57850;52.922;6.256;2023-02-02T12:02:23;4.07;;;2.70;;
12467;SDS011;57850;52.922;6.256;2023-02-02T12:04:55;4.22;;;2.80;;
12467;SDS011;57850;52.922;6.256;2023-02-02T12:07:39;3.20;;;2.30;;
12467;SDS011;57850;52.922;6.256;2023-02-02T12:10:10;4.63;;;2.80;;
12467;SDS011;57850;52.922;6.256;2023-02-02T12:12:44;4.05;;;2.80;;
12467;SDS011;57850;52.922;6.256;2023-02-02T12:15:23;4.28;;;2.60;;
12467;SDS011;57850;52.922;6.256;2023-02-02T12:17:59;4.72;;;3.00;;
12467;SDS011;57850;52.922;6.256;2023-02-02T12:20:34;3.83;;;2.70;;
12467;SDS011;57850;52.922;6.256;2023-02-02T12:26:13;7.85;;;3.90;;
12467;SDS011;57850;52.922;6.256;2023-02-02T12:29:07;5.75;;;3.55;;
12467;SDS011;57850;52.922;6.256;2023-02-02T12:31:46;6.40;;;4.00;;
12467;SDS011;57850;52.922;6.256;2023-02-02T12:34:26;6.80;;;4.05;;
12467;SDS011;57850;52.922;6.256;2023-02-02T12:37:00;8.27;;;4.30;;
12467;SDS011;57850;52.922;6.256;2023-02-02T12:39:37;5.75;;;4.57;;
12467;SDS011;57850;52.922;6.256;2023-02-02T12:42:24;7.15;;;5.32;;
12467;SDS011;57850;52.922;6.256;2023-02-02T12:45:17;9.95;;;5.18;;
12467;SDS011;57850;52.922;6.256;2023-02-02T12:48:02;13.35;;;6.22;;
12467;SDS011;57850;52.922;6.256;2023-02-02T12:50:37;13.40;;;6.85;;
12467;SDS011;57850;52.922;6.256;2023-02-02T12:53:12;16.92;;;7.03;;
12467;SDS011;57850;52.922;6.256;2023-02-02T12:55:47;20.90;;;7.10;;
12467;SDS011;57850;52.922;6.256;2023-02-02T12:58:23;25.05;;;8.23;;
12467;SDS011;57850;52.922;6.256;2023-02-02T13:01:00;15.10;;;7.18;;
12467;SDS011;57850;52.922;6.256;2023-02-02T13:03:37;23.50;;;7.75;;
12467;SDS011;57850;52.922;6.256;2023-02-02T13:06:18;23.23;;;7.25;;
12467;SDS011;57850;52.922;6.256;2023-02-02T13:08:59;22.30;;;8.50;;
12467;SDS011;57850;52.922;6.256;2023-02-02T13:11:34;21.45;;;9.20;;
12467;SDS011;57850;52.922;6.256;2023-02-02T13:14:07;21.77;;;9.25;;
12467;SDS011;57850;52.922;6.256;2023-02-02T13:16:40;24.15;;;9.10;;
12467;SDS011;57850;52.922;6.256;2023-02-02T13:19:12;32.60;;;9.68;;
12467;SDS011;57850;52.922;6.256;2023-02-02T13:21:47;22.92;;;9.65;;
12467;SDS011;57850;52.922;6.256;2023-02-02T13:24:19;34.20;;;9.48;;
12467;SDS011;57850;52.922;6.256;2023-02-02T13:26:51;26.52;;;8.50;;
12467;SDS011;57850;52.922;6.256;2023-02-02T13:29:22;28.67;;;8.48;;
12467;SDS011;57850;52.922;6.256;2023-02-02T13:31:56;27.38;;;8.60;;
12467;SDS011;57850;52.922;6.256;2023-02-02T13:34:29;30.58;;;7.97;;
12467;SDS011;57850;52.922;6.256;2023-02-02T13:37:07;28.63;;;7.78;;
12467;SDS011;57850;52.922;6.256;2023-02-02T13:39:41;21.20;;;7.85;;
12467;SDS011;57850;52.922;6.256;2023-02-02T13:42:13;29.92;;;8.35;;
12467;SDS011;57850;52.922;6.256;2023-02-02T13:44:49;27.63;;;8.25;;
12467;SDS011;57850;52.922;6.256;2023-02-02T13:47:25;27.30;;;8.52;;
12467;SDS011;57850;52.922;6.256;2023-02-02T13:49:57;28.83;;;9.18;;
12467;SDS011;57850;52.922;6.256;2023-02-02T13:52:39;27.73;;;7.80;;
12467;SDS011;57850;52.922;6.256;2023-02-02T13:55:26;18.92;;;7.63;;
12467;SDS011;57850;52.922;6.256;2023-02-02T13:58:11;21.90;;;6.85;;
12467;SDS011;57850;52.922;6.256;2023-02-02T14:00:47;23.38;;;7.97;;
12467;SDS011;57850;52.922;6.256;2023-02-02T14:03:28;17.35;;;6.55;;
12467;SDS011;57850;52.922;6.256;2023-02-02T14:06:09;24.25;;;6.70;;
12467;SDS011;57850;52.922;6.256;2023-02-02T14:08:46;21.65;;;7.55;;
12467;SDS011;57850;52.922;6.256;2023-02-02T14:11:26;17.20;;;6.47;;
12467;SDS011;57850;52.922;6.256;2023-02-02T14:13:56;17.83;;;6.25;;
12467;SDS011;57850;52.922;6.256;2023-02-02T14:16:51;19.65;;;6.60;;
12467;SDS011;57850;52.922;6.256;2023-02-02T14:28:39;18.45;;;6.25;;
12467;SDS011;57850;52.922;6.256;2023-02-02T14:31:15;15.95;;;6.30;;
12467;SDS011;57850;52.922;6.256;2023-02-02T14:33:51;20.52;;;6.38;;
12467;SDS011;57850;52.922;6.256;2023-02-02T14:36:57;22.48;;;6.75;;
12467;SDS011;57850;52.922;6.256;2023-02-02T14:39:36;25.45;;;7.20;;
12467;SDS011;57850;52.922;6.256;2023-02-02T14:42:16;24.27;;;6.38;;
12467;SDS011;57850;52.922;6.256;2023-02-02T14:45:14;20.85;;;6.45;;
12467;SDS011;57850;52.922;6.256;2023-02-02T14:47:48;26.67;;;6.15;;
12467;SDS011;57850;52.922;6.256;2023-02-02T14:50:21;25.83;;;6.82;;
12467;SDS011;57850;52.922;6.256;2023-02-02T14:52:55;27.85;;;6.03;;
12467;SDS011;57850;52.922;6.256;2023-02-02T14:55:28;21.25;;;5.72;;
12467;SDS011;57850;52.922;6.256;2023-02-02T14:57:56;20.95;;;5.60;;
12467;SDS011;57850;52.922;6.256;2023-02-02T15:00:25;27.08;;;6.00;;
12467;SDS011;57850;52.922;6.256;2023-02-02T15:02:55;29.83;;;5.68;;
12467;SDS011;57850;52.922;6.256;2023-02-02T15:05:43;26.70;;;6.28;;
12467;SDS011;57850;52.922;6.256;2023-02-02T15:08:22;26.60;;;6.55;;
12467;SDS011;57850;52.922;6.256;2023-02-02T15:10:58;19.58;;;6.65;;
12467;SDS011;57850;52.922;6.256;2023-02-02T15:13:48;24.92;;;5.70;;
12467;SDS011;57850;52.922;6.256;2023-02-02T15:16:30;24.30;;;5.65;;
12467;SDS011;57850;52.922;6.256;2023-02-02T15:19:22;30.80;;;6.03;;
12467;SDS011;57850;52.922;6.256;2023-02-02T15:21:58;21.65;;;5.43;;
12467;SDS011;57850;52.922;6.256;2023-02-02T15:24:32;30.63;;;5.53;;
12467;SDS011;57850;52.922;6.256;2023-02-02T15:27:02;22.52;;;5.40;;
12467;SDS011;57850;52.922;6.256;2023-02-02T15:29:34;22.65;;;5.63;;
12467;SDS011;57850;52.922;6.256;2023-02-02T15:32:06;16.10;;;4.68;;